createdAt,value
2023-05-22T00:00:19.435Z,2.30
2023-05-22T00:02:46.606Z,2.83
2023-05-22T00:05:14.783Z,2.03
2023-05-22T00:07:46.048Z,2.05
2023-05-22T00:10:12.992Z,2.70
2023-05-22T00:12:40.444Z,2.85
2023-05-22T00:15:07.885Z,2.35
2023-05-22T00:17:35.532Z,2.70
2023-05-22T00:20:11.082Z,2.10
2023-05-22T00:22:39.156Z,1.88
2023-05-22T00:25:07.377Z,2.20
2023-05-22T00:27:34.470Z,2.83
2023-05-22T00:30:01.741Z,2.55
2023-05-22T00:32:28.935Z,3.28
2023-05-22T00:34:56.834Z,3.05
2023-05-22T00:37:23.815Z,2.70
2023-05-22T00:39:50.855Z,2.38
2023-05-22T00:42:18.712Z,2.50
2023-05-22T00:44:46.078Z,2.47
2023-05-22T00:47:13.124Z,2.97
2023-05-22T00:49:40.792Z,2.65
2023-05-22T00:52:09.383Z,2.88
2023-05-22T00:54:36.722Z,2.92
2023-05-22T00:57:04.403Z,2.50
2023-05-22T00:59:31.543Z,2.70
2023-05-22T01:01:58.799Z,2.67
2023-05-22T01:04:26.357Z,2.58
2023-05-22T01:06:55.168Z,2.60
2023-05-22T01:09:25.662Z,3.03
2023-05-22T01:11:58.540Z,2.92
2023-05-22T01:14:41.348Z,2.60
2023-05-22T01:17:25.973Z,2.90
2023-05-22T01:20:07.365Z,3.10
2023-05-22T01:22:58.719Z,2.97
2023-05-22T01:25:41.259Z,3.15
2023-05-22T01:28:26.450Z,2.70
2023-05-22T01:31:04.392Z,3.53
2023-05-22T01:33:37.392Z,3.00
2023-05-22T01:36:07.875Z,3.42
2023-05-22T01:38:35.227Z,2.63
2023-05-22T01:41:02.149Z,3.13
2023-05-22T01:43:29.447Z,3.55
2023-05-22T01:45:56.275Z,2.78
2023-05-22T01:48:23.176Z,3.25
2023-05-22T01:50:52.703Z,3.35
2023-05-22T01:53:37.133Z,3.28
2023-05-22T01:56:10.292Z,3.22
2023-05-22T01:58:49.381Z,3.45
2023-05-22T02:01:19.538Z,3.10
2023-05-22T02:03:52.100Z,3.10
2023-05-22T02:06:19.953Z,3.30
2023-05-22T02:08:47.472Z,3.85
2023-05-22T02:11:16.755Z,2.95
2023-05-22T02:13:43.860Z,2.70
2023-05-22T02:16:12.316Z,3.08
2023-05-22T02:18:41.794Z,2.38
2023-05-22T02:21:08.819Z,2.90
2023-05-22T02:23:36.203Z,3.53
2023-05-22T02:26:03.272Z,2.92
2023-05-22T02:28:29.968Z,3.60
2023-05-22T02:30:57.196Z,3.40
2023-05-22T02:33:23.981Z,3.05
2023-05-22T02:35:50.746Z,3.72
2023-05-22T02:38:18.598Z,3.70
2023-05-22T02:40:47.209Z,3.28
2023-05-22T02:43:14.434Z,3.83
2023-05-22T02:45:41.656Z,3.80
2023-05-22T02:48:08.723Z,3.80
2023-05-22T02:50:35.659Z,3.65
2023-05-22T02:53:02.327Z,3.75
2023-05-22T02:55:28.986Z,3.70
2023-05-22T02:57:55.958Z,3.25
2023-05-22T03:00:23.159Z,3.78
2023-05-22T03:02:49.930Z,3.55
2023-05-22T03:05:18.019Z,3.10
2023-05-22T03:07:48.367Z,4.15
2023-05-22T03:10:16.029Z,4.28
2023-05-22T03:12:43.013Z,3.45
2023-05-22T03:15:11.189Z,3.50
2023-05-22T03:17:38.051Z,4.25
2023-05-22T03:20:05.556Z,4.50
2023-05-22T03:22:32.703Z,4.28
2023-05-22T03:24:59.752Z,4.45
2023-05-22T03:27:26.790Z,3.45
2023-05-22T03:29:53.847Z,3.97
2023-05-22T03:32:20.591Z,3.58
2023-05-22T03:34:47.662Z,3.67
2023-05-22T03:37:15.007Z,3.47
2023-05-22T03:39:41.758Z,3.80
2023-05-22T03:42:08.582Z,4.05
2023-05-22T03:44:35.319Z,3.55
2023-05-22T03:47:02.090Z,4.28
2023-05-22T03:49:28.751Z,4.25
2023-05-22T03:51:55.348Z,4.32
2023-05-22T03:54:22.148Z,4.22
2023-05-22T03:56:49.418Z,4.30
2023-05-22T03:59:16.506Z,3.47
2023-05-22T04:01:44.213Z,4.20
2023-05-22T04:04:12.288Z,3.83
2023-05-22T04:06:43.652Z,4.68
2023-05-22T04:09:12.158Z,4.68
2023-05-22T04:11:43.312Z,3.95
2023-05-22T04:14:10.537Z,4.10
2023-05-22T04:16:40.602Z,4.35
2023-05-22T04:19:09.850Z,4.60
2023-05-22T04:21:38.528Z,4.10
2023-05-22T04:24:07.549Z,4.00
2023-05-22T04:26:34.756Z,4.70
2023-05-22T04:29:02.334Z,4.30
2023-05-22T04:31:29.408Z,4.40
2023-05-22T04:33:56.694Z,3.58
2023-05-22T04:36:26.236Z,3.92
2023-05-22T04:38:54.164Z,4.55
2023-05-22T04:41:22.759Z,4.38
2023-05-22T04:43:49.684Z,3.92
2023-05-22T04:46:16.555Z,3.83
2023-05-22T04:48:43.560Z,4.00
2023-05-22T04:51:10.554Z,3.70
2023-05-22T04:53:38.862Z,4.05
2023-05-22T04:56:06.666Z,3.78
2023-05-22T04:58:33.807Z,4.35
2023-05-22T05:01:00.785Z,3.10
2023-05-22T05:03:28.742Z,3.30
2023-05-22T05:05:59.926Z,2.72
2023-05-22T05:08:26.926Z,3.00
2023-05-22T05:10:53.940Z,3.00
2023-05-22T05:13:21.450Z,2.90
2023-05-22T05:15:49.076Z,2.90
2023-05-22T05:18:17.179Z,2.30
2023-05-22T05:20:45.286Z,2.50
2023-05-22T05:23:12.382Z,2.45
2023-05-22T05:25:39.548Z,2.60
2023-05-22T05:28:10.880Z,2.20
2023-05-22T05:31:19.008Z,2.20
2023-05-22T05:33:47.001Z,2.22
2023-05-22T05:36:15.005Z,2.38
2023-05-22T05:38:42.626Z,2.50
2023-05-22T05:41:09.835Z,2.80
2023-05-22T05:43:37.221Z,2.55
2023-05-22T05:46:04.162Z,2.20
2023-05-22T05:48:40.467Z,3.70
2023-05-22T05:51:07.682Z,2.97
2023-05-22T05:53:37.045Z,2.95
2023-05-22T05:56:16.896Z,2.55
2023-05-22T05:58:46.828Z,2.60
2023-05-22T06:01:14.492Z,2.67
2023-05-22T06:03:41.892Z,2.80
2023-05-22T06:06:08.803Z,2.65
2023-05-22T06:08:35.669Z,2.38
2023-05-22T06:11:03.425Z,2.47
2023-05-22T06:13:30.624Z,2.53
2023-05-22T06:15:59.587Z,2.45
2023-05-22T06:18:28.995Z,2.07
2023-05-22T06:20:57.824Z,2.78
2023-05-22T06:23:27.268Z,1.95
2023-05-22T06:25:54.137Z,2.53
2023-05-22T06:28:24.493Z,2.58
2023-05-22T06:30:51.832Z,2.75
2023-05-22T06:33:18.709Z,2.72
2023-05-22T06:35:45.489Z,2.35
2023-05-22T06:38:12.143Z,2.72
2023-05-22T06:40:38.960Z,2.70
2023-05-22T06:43:05.798Z,2.80
2023-05-22T06:45:32.487Z,2.13
2023-05-22T06:47:59.429Z,2.03
2023-05-22T06:50:26.231Z,2.15
2023-05-22T06:52:53.802Z,2.33
2023-05-22T06:55:20.532Z,2.10
2023-05-22T06:57:47.516Z,2.15
2023-05-22T07:00:20.929Z,2.70
2023-05-22T07:02:48.673Z,2.17
2023-05-22T07:05:15.803Z,2.15
2023-05-22T07:07:43.789Z,2.03
2023-05-22T07:10:11.023Z,2.42
2023-05-22T07:12:37.883Z,1.88
2023-05-22T07:15:04.860Z,2.65
2023-05-22T07:17:32.649Z,2.83
2023-05-22T07:19:59.897Z,2.58
2023-05-22T07:22:27.091Z,1.90
2023-05-22T07:24:53.741Z,2.28
2023-05-22T07:27:20.821Z,1.65
2023-05-22T07:29:47.576Z,1.55
2023-05-22T07:32:15.319Z,1.80
2023-05-22T07:34:51.540Z,1.58
2023-05-22T07:37:18.736Z,1.80
2023-05-22T07:39:46.868Z,1.60
2023-05-22T07:42:15.169Z,1.73
2023-05-22T07:44:42.193Z,2.03
2023-05-22T07:47:09.141Z,1.95
2023-05-22T07:49:36.383Z,1.70
2023-05-22T07:52:10.747Z,2.17
2023-05-22T07:54:37.917Z,1.98
2023-05-22T07:57:05.060Z,1.90
2023-05-22T07:59:34.146Z,1.75
2023-05-22T08:02:03.076Z,1.70
2023-05-22T08:04:30.159Z,2.33
2023-05-22T08:07:00.160Z,1.58
2023-05-22T08:09:26.919Z,1.83
2023-05-22T08:11:53.977Z,1.45
2023-05-22T08:14:22.494Z,1.80
2023-05-22T08:16:49.876Z,2.60
2023-05-22T08:19:16.725Z,2.00
2023-05-22T08:21:43.952Z,2.00
2023-05-22T08:24:10.769Z,1.58
2023-05-22T08:26:38.964Z,1.13
2023-05-22T08:29:05.710Z,1.88
2023-05-22T08:31:34.414Z,1.70
2023-05-22T08:34:02.880Z,1.90
2023-05-22T08:36:31.672Z,1.63
2023-05-22T08:38:58.454Z,1.48
2023-05-22T08:41:25.261Z,1.00
2023-05-22T08:43:51.974Z,1.77
2023-05-22T08:46:20.162Z,1.73
2023-05-22T08:48:47.961Z,1.60
2023-05-22T08:51:19.117Z,1.13
2023-05-22T08:53:47.651Z,1.40
2023-05-22T08:56:15.152Z,1.17
2023-05-22T08:58:42.399Z,1.30
2023-05-22T09:01:09.309Z,1.38
2023-05-22T09:03:37.043Z,1.23
2023-05-22T09:06:04.799Z,1.20
2023-05-22T09:08:31.538Z,1.30
2023-05-22T09:10:58.255Z,1.27
2023-05-22T09:13:33.949Z,1.33
2023-05-22T09:16:14.689Z,1.10
2023-05-22T09:18:44.645Z,1.55
2023-05-22T09:21:28.970Z,1.55
2023-05-22T09:24:03.304Z,1.52
2023-05-22T09:26:30.261Z,1.45
2023-05-22T09:28:59.773Z,1.42
2023-05-22T09:31:27.686Z,1.23
2023-05-22T09:33:59.228Z,1.42
2023-05-22T09:36:33.247Z,1.60
2023-05-22T09:39:04.807Z,1.55
2023-05-22T09:41:37.488Z,1.38
2023-05-22T09:44:12.872Z,1.38
2023-05-22T09:46:45.512Z,1.10
2023-05-22T09:49:15.796Z,1.00
2023-05-22T09:51:48.056Z,2.10
2023-05-22T09:54:16.540Z,1.73
2023-05-22T09:56:44.362Z,1.65
2023-05-22T09:59:13.974Z,1.42
2023-05-22T10:01:42.754Z,1.40
2023-05-22T10:04:16.758Z,1.85
2023-05-22T10:06:50.439Z,1.48
2023-05-22T10:09:19.664Z,1.20
2023-05-22T10:11:48.046Z,2.00
2023-05-22T10:14:15.856Z,1.20
2023-05-22T10:16:47.215Z,1.63
2023-05-22T10:19:14.554Z,1.73
2023-05-22T10:21:41.782Z,1.30
2023-05-22T10:24:09.225Z,1.55
2023-05-22T10:26:36.390Z,1.33
2023-05-22T10:29:18.203Z,1.83
2023-05-22T10:31:56.062Z,1.60
2023-05-22T10:34:51.188Z,1.60
2023-05-22T10:37:33.143Z,1.35
2023-05-22T10:40:05.409Z,1.55
2023-05-22T10:42:32.663Z,1.17
2023-05-22T10:45:01.312Z,1.73
2023-05-22T10:47:28.367Z,1.77
2023-05-22T10:50:12.167Z,1.83
2023-05-22T10:52:40.020Z,1.60
2023-05-22T10:55:08.826Z,1.50
2023-05-22T10:57:38.555Z,1.42
2023-05-22T11:00:09.737Z,1.92
2023-05-22T11:02:42.481Z,1.70
2023-05-22T11:05:21.886Z,1.73
2023-05-22T11:07:49.229Z,1.50
2023-05-22T11:10:26.517Z,1.92
2023-05-22T11:13:19.623Z,1.85
2023-05-22T11:15:46.903Z,1.40
2023-05-22T11:18:16.553Z,1.38
2023-05-22T11:20:44.463Z,1.42
2023-05-22T11:23:11.407Z,1.63
2023-05-22T11:25:40.512Z,1.73
2023-05-22T11:28:08.101Z,1.30
2023-05-22T11:30:35.312Z,1.45
2023-05-22T11:33:02.548Z,1.63
2023-05-22T11:35:29.833Z,1.50
2023-05-22T11:37:57.154Z,1.42
2023-05-22T11:40:26.016Z,1.42
2023-05-22T11:42:54.113Z,1.73
2023-05-22T11:45:21.890Z,2.20
2023-05-22T11:47:49.094Z,1.27
2023-05-22T11:52:50.290Z,0.90
2023-05-22T11:55:17.002Z,2.03
2023-05-22T11:57:44.370Z,1.20
2023-05-22T12:00:12.140Z,1.60
2023-05-22T12:02:39.633Z,1.50
2023-05-22T12:05:11.918Z,1.52
2023-05-22T12:07:38.743Z,2.03
2023-05-22T12:10:11.368Z,2.03
2023-05-22T12:12:39.467Z,1.17
2023-05-22T12:15:08.730Z,1.40
2023-05-22T12:17:39.834Z,1.55
2023-05-22T12:20:07.420Z,1.80
2023-05-22T12:22:34.174Z,2.15
2023-05-22T12:25:01.093Z,1.65
2023-05-22T12:27:33.163Z,1.30
2023-05-22T12:30:10.464Z,1.70
2023-05-22T12:32:37.335Z,2.00
2023-05-22T12:35:04.365Z,1.80
2023-05-22T12:40:03.485Z,1.45
2023-05-22T12:42:30.122Z,1.25
2023-05-22T12:44:58.379Z,1.73
2023-05-22T12:47:25.671Z,1.55
2023-05-22T12:49:53.093Z,1.55
2023-05-22T12:52:20.034Z,2.03
2023-05-22T12:54:47.082Z,1.52
2023-05-22T12:57:13.929Z,1.58
2023-05-22T12:59:40.811Z,1.52
2023-05-22T13:02:07.680Z,1.45
2023-05-22T13:04:34.499Z,2.03
2023-05-22T13:07:01.790Z,2.13
2023-05-22T13:09:28.541Z,1.58
2023-05-22T13:11:55.658Z,1.55
2023-05-22T13:14:22.815Z,1.05
2023-05-22T13:16:49.497Z,1.40
2023-05-22T13:19:16.666Z,1.08
2023-05-22T13:21:43.724Z,1.80
2023-05-22T13:24:11.032Z,1.77
2023-05-22T13:26:37.681Z,1.67
2023-05-22T13:29:04.427Z,2.67
2023-05-22T13:31:33.385Z,1.67
2023-05-22T13:34:02.935Z,1.45
2023-05-22T13:36:30.285Z,1.55
2023-05-22T13:38:57.289Z,2.25
2023-05-22T13:41:23.971Z,1.70
2023-05-22T13:43:50.791Z,1.75
2023-05-22T13:46:18.364Z,1.85
2023-05-22T13:48:45.838Z,1.50
2023-05-22T13:51:12.542Z,1.63
2023-05-22T13:53:39.297Z,1.65
2023-05-22T13:56:06.219Z,1.92
2023-05-22T13:58:32.826Z,2.10
2023-05-22T14:00:59.534Z,1.30
2023-05-22T14:03:26.238Z,1.52
2023-05-22T14:05:53.118Z,1.42
2023-05-22T14:08:20.047Z,1.33
2023-05-22T14:10:46.841Z,1.27
2023-05-22T14:13:13.652Z,2.10
2023-05-22T14:15:40.741Z,1.45
2023-05-22T14:18:07.641Z,1.17
2023-05-22T14:20:34.464Z,1.17
2023-05-22T14:23:01.124Z,1.48
2023-05-22T14:25:27.816Z,1.73
2023-05-22T14:27:54.553Z,1.92
2023-05-22T14:30:21.319Z,1.50
2023-05-22T14:32:48.898Z,1.02
2023-05-22T14:35:16.790Z,1.00
2023-05-22T14:37:45.664Z,1.20
2023-05-22T14:40:12.415Z,1.33
2023-05-22T14:42:39.154Z,1.80
2023-05-22T14:45:06.295Z,1.40
2023-05-22T14:47:33.040Z,1.60
2023-05-22T14:50:10.282Z,1.85
2023-05-22T14:52:45.173Z,1.58
2023-05-22T14:55:11.878Z,2.08
2023-05-22T14:57:38.602Z,1.45
2023-05-22T15:00:12.586Z,1.83
2023-05-22T15:02:40.003Z,1.52
2023-05-22T15:05:10.193Z,1.60
2023-05-22T15:10:08.525Z,1.30
2023-05-22T15:12:44.290Z,1.77
2023-05-22T15:15:11.425Z,2.13
2023-05-22T15:17:39.398Z,2.20
2023-05-22T15:20:07.893Z,1.88
2023-05-22T15:22:34.695Z,1.83
2023-05-22T15:25:05.704Z,2.28
2023-05-22T15:27:33.512Z,2.60
2023-05-22T15:30:00.462Z,2.20
2023-05-22T15:32:27.459Z,2.47
2023-05-22T15:34:54.083Z,2.50
2023-05-22T15:37:20.952Z,2.05
2023-05-22T15:39:47.615Z,2.60
2023-05-22T15:42:14.514Z,2.35
2023-05-22T15:44:41.347Z,2.10
2023-05-22T15:47:08.005Z,1.83
2023-05-22T15:49:34.751Z,2.17
2023-05-22T15:52:02.893Z,2.40
2023-05-22T15:54:29.619Z,3.53
2023-05-22T15:56:56.472Z,2.35
2023-05-22T15:59:23.117Z,2.17
2023-05-22T16:01:50.046Z,2.13
2023-05-22T16:04:17.171Z,2.13
2023-05-22T16:06:43.871Z,1.50
2023-05-22T16:09:11.172Z,1.67
2023-05-22T16:11:38.092Z,2.70
2023-05-22T16:14:05.025Z,2.22
2023-05-22T16:16:31.821Z,4.65
2023-05-22T16:18:58.716Z,2.20
2023-05-22T16:21:25.570Z,2.30
2023-05-22T16:23:52.660Z,2.30
2023-05-22T16:26:19.529Z,2.05
2023-05-22T16:28:46.337Z,1.88
2023-05-22T16:31:14.062Z,1.80
2023-05-22T16:33:40.769Z,1.77
2023-05-22T16:36:07.678Z,1.50
2023-05-22T16:38:34.407Z,2.38
2023-05-22T16:41:01.427Z,2.13
2023-05-22T16:43:28.216Z,1.75
2023-05-22T16:45:55.105Z,1.80
2023-05-22T16:48:21.949Z,1.85
2023-05-22T16:50:48.841Z,1.77
2023-05-22T16:53:18.439Z,1.75
2023-05-22T16:55:48.179Z,1.65
2023-05-22T16:58:14.972Z,2.45
2023-05-22T17:00:42.036Z,2.33
2023-05-22T17:03:10.229Z,3.00
2023-05-22T17:05:40.794Z,2.25
2023-05-22T17:08:28.590Z,2.15
2023-05-22T17:11:10.441Z,2.70
2023-05-22T17:13:40.330Z,3.28
2023-05-22T17:16:08.082Z,3.63
2023-05-22T17:18:35.886Z,2.78
2023-05-22T17:21:09.817Z,2.22
2023-05-22T17:23:38.060Z,2.10
2023-05-22T17:26:05.572Z,1.75
2023-05-22T17:28:32.948Z,3.15
2023-05-22T17:31:02.921Z,2.67
2023-05-22T17:33:33.257Z,2.42
2023-05-22T17:36:04.524Z,2.65
2023-05-22T17:38:40.564Z,1.98
2023-05-22T17:41:10.739Z,3.45
2023-05-22T17:43:42.134Z,2.40
2023-05-22T17:46:10.746Z,2.03
2023-05-22T17:48:41.793Z,2.65
2023-05-22T17:51:12.831Z,2.55
2023-05-22T17:53:47.976Z,2.28
2023-05-22T17:56:14.769Z,2.47
2023-05-22T17:58:42.033Z,3.17
2023-05-22T18:01:09.351Z,3.47
2023-05-22T18:03:36.501Z,3.10
2023-05-22T18:06:03.881Z,4.18
2023-05-22T18:08:31.744Z,3.35
2023-05-22T18:10:59.188Z,3.75
2023-05-22T18:13:26.523Z,3.83
2023-05-22T18:15:54.902Z,4.13
2023-05-22T18:18:22.702Z,4.18
2023-05-22T18:20:50.526Z,4.40
2023-05-22T18:23:18.343Z,3.53
2023-05-22T18:25:48.904Z,3.65
2023-05-22T18:28:20.455Z,3.53
2023-05-22T18:30:56.692Z,3.33
2023-05-22T18:33:25.541Z,3.72
2023-05-22T18:35:57.688Z,2.97
2023-05-22T18:41:13.762Z,3.20
2023-05-22T18:43:51.084Z,2.90
2023-05-22T18:46:24.818Z,3.00
2023-05-22T18:48:52.044Z,3.33
2023-05-22T18:51:20.090Z,2.92
2023-05-22T18:53:47.235Z,2.35
2023-05-22T18:56:13.964Z,2.10
2023-05-22T18:58:41.500Z,2.45
2023-05-22T19:01:12.379Z,2.35
2023-05-22T19:03:40.174Z,1.95
2023-05-22T19:06:07.223Z,2.20
2023-05-22T19:08:34.756Z,1.20
2023-05-22T19:11:01.483Z,1.80
2023-05-22T19:13:29.310Z,1.30
2023-05-22T19:15:57.390Z,1.48
2023-05-22T19:18:24.692Z,1.92
2023-05-22T19:20:51.464Z,1.38
2023-05-22T19:23:18.669Z,1.38
2023-05-22T19:25:45.472Z,1.52
2023-05-22T19:28:12.216Z,1.27
2023-05-22T19:30:39.214Z,1.58
2023-05-22T19:33:08.707Z,1.60
2023-05-22T19:35:35.758Z,1.58
2023-05-22T19:38:02.490Z,1.88
2023-05-22T19:40:29.182Z,1.17
2023-05-22T19:42:55.979Z,0.93
2023-05-22T19:45:22.985Z,1.30
2023-05-22T19:47:49.714Z,1.50
2023-05-22T19:50:17.476Z,1.60
2023-05-22T19:52:44.680Z,1.75
2023-05-22T19:55:11.568Z,1.48
2023-05-22T19:57:38.195Z,1.30
2023-05-22T20:00:07.597Z,1.52
2023-05-22T20:02:34.418Z,1.88
2023-05-22T20:05:01.793Z,1.17
2023-05-22T20:07:28.880Z,1.30
2023-05-22T20:09:55.632Z,1.27
2023-05-22T20:12:22.293Z,1.50
2023-05-22T20:14:48.973Z,2.90
2023-05-22T20:17:15.617Z,1.73
2023-05-22T20:19:45.008Z,2.13
2023-05-22T20:22:11.701Z,2.13
2023-05-22T20:24:38.362Z,2.00
2023-05-22T20:27:06.395Z,1.73
2023-05-22T20:29:33.446Z,2.53
2023-05-22T20:32:00.220Z,1.88
2023-05-22T20:34:28.603Z,1.98
2023-05-22T20:36:55.524Z,2.00
2023-05-22T20:39:22.453Z,2.17
2023-05-22T20:41:52.019Z,2.50
2023-05-22T20:44:23.898Z,2.20
2023-05-22T20:46:54.265Z,2.13
2023-05-22T20:49:21.569Z,2.53
2023-05-22T20:51:50.093Z,1.67
2023-05-22T20:54:17.863Z,2.30
2023-05-22T20:56:44.564Z,1.75
2023-05-22T20:59:11.542Z,2.92
2023-05-22T21:01:38.405Z,2.08
2023-05-22T21:04:05.253Z,1.90
2023-05-22T21:06:32.021Z,1.75
2023-05-22T21:09:01.867Z,1.70
2023-05-22T21:11:28.636Z,1.85
2023-05-22T21:13:55.286Z,1.38
2023-05-22T21:16:21.963Z,2.13
2023-05-22T21:18:49.120Z,3.05
2023-05-22T21:21:21.604Z,3.00
2023-05-22T21:23:49.216Z,2.22
2023-05-22T21:26:16.776Z,2.40
2023-05-22T21:28:44.324Z,2.60
2023-05-22T21:31:15.080Z,2.22
2023-05-22T21:33:42.217Z,3.13
2023-05-22T21:36:09.119Z,2.80
2023-05-22T21:38:36.352Z,3.13
2023-05-22T21:41:03.467Z,3.00
2023-05-22T21:43:30.103Z,2.72
2023-05-22T21:45:56.708Z,2.90
2023-05-22T21:48:23.470Z,3.47
2023-05-22T21:50:50.308Z,2.95
2023-05-22T21:53:17.234Z,3.55
2023-05-22T21:55:43.852Z,3.28
2023-05-22T21:58:10.662Z,4.18
2023-05-22T22:00:38.061Z,3.17
2023-05-22T22:03:05.499Z,3.05
2023-05-22T22:05:32.955Z,2.97
2023-05-22T22:07:59.587Z,3.33
2023-05-22T22:10:26.303Z,3.03
2023-05-22T22:12:52.916Z,3.92
2023-05-22T22:15:19.656Z,3.45
2023-05-22T22:17:47.625Z,3.78
2023-05-22T22:20:14.373Z,3.15
2023-05-22T22:22:41.231Z,3.95
2023-05-22T22:25:08.663Z,2.90
2023-05-22T22:27:36.962Z,3.00
2023-05-22T22:30:03.845Z,3.67
2023-05-22T22:32:30.514Z,3.10
2023-05-22T22:34:57.344Z,3.80
2023-05-22T22:37:24.067Z,3.97
2023-05-22T22:39:50.728Z,3.35
2023-05-22T22:42:17.432Z,4.00
2023-05-22T22:44:44.526Z,3.90
2023-05-22T22:47:11.283Z,3.65
2023-05-22T22:49:38.450Z,4.20
2023-05-22T22:52:05.516Z,4.60
2023-05-22T22:54:32.404Z,3.92
2023-05-22T22:56:59.142Z,3.65
2023-05-22T22:59:25.920Z,3.85
2023-05-22T23:01:52.683Z,3.72
2023-05-22T23:04:19.481Z,4.35
2023-05-22T23:06:46.270Z,5.15
2023-05-22T23:09:13.187Z,4.90
2023-05-22T23:11:40.098Z,4.22
2023-05-22T23:14:10.223Z,4.07
2023-05-22T23:16:38.212Z,4.25
2023-05-22T23:19:05.819Z,3.53
2023-05-22T23:21:33.724Z,3.67
2023-05-22T23:24:01.709Z,3.65
2023-05-22T23:26:28.445Z,3.78
2023-05-22T23:28:55.144Z,3.42
2023-05-22T23:31:26.012Z,4.15
2023-05-22T23:33:53.349Z,3.80
2023-05-22T23:36:20.076Z,4.22
2023-05-22T23:38:47.647Z,3.97
2023-05-22T23:41:18.828Z,3.97
2023-05-22T23:43:46.249Z,4.05
2023-05-22T23:46:14.283Z,4.25
2023-05-22T23:48:41.791Z,4.63
2023-05-22T23:51:14.461Z,4.10
2023-05-22T23:53:42.339Z,4.47
2023-05-22T23:56:09.926Z,3.55
2023-05-22T23:58:39.658Z,4.68
